createdAt,value
2023-05-14T00:00:55.378Z,59.83
2023-05-14T00:03:24.002Z,59.79
2023-05-14T00:05:51.666Z,59.97
2023-05-14T00:08:17.978Z,60.00
2023-05-14T00:10:46.866Z,59.74
2023-05-14T00:13:13.193Z,60.03
2023-05-14T00:15:39.460Z,59.92
2023-05-14T00:18:05.790Z,59.78
2023-05-14T00:20:32.077Z,60.07
2023-05-14T00:22:58.380Z,59.75
2023-05-14T00:25:24.781Z,59.70
2023-05-14T00:27:53.122Z,59.86
2023-05-14T00:30:25.085Z,59.96
2023-05-14T00:32:51.531Z,59.64
2023-05-14T00:35:21.060Z,59.93
2023-05-14T00:37:48.932Z,59.66
2023-05-14T00:40:17.354Z,59.88
2023-05-14T00:42:45.967Z,59.70
2023-05-14T00:45:15.170Z,59.82
2023-05-14T00:47:42.772Z,59.79
2023-05-14T00:50:09.497Z,59.87
2023-05-14T00:52:38.914Z,59.81
2023-05-14T00:55:05.168Z,59.86
2023-05-14T00:57:35.114Z,59.54
2023-05-14T01:00:01.388Z,59.48
2023-05-14T01:02:30.637Z,59.58
2023-05-14T01:04:57.012Z,59.58
2023-05-14T01:07:28.062Z,59.57
2023-05-14T01:09:54.434Z,59.51
2023-05-14T01:12:20.690Z,59.48
2023-05-14T01:14:46.915Z,59.68
2023-05-14T01:17:13.149Z,59.63
2023-05-14T01:19:41.539Z,59.46
2023-05-14T01:22:09.769Z,59.55
2023-05-14T01:24:36.047Z,59.37
2023-05-14T01:27:02.366Z,59.57
2023-05-14T01:29:28.611Z,59.43
2023-05-14T01:31:54.909Z,59.71
2023-05-14T01:34:21.150Z,59.48
2023-05-14T01:36:49.243Z,59.65
2023-05-14T01:39:17.769Z,59.31
2023-05-14T01:41:46.370Z,59.39
2023-05-14T01:44:15.082Z,59.63
2023-05-14T01:46:41.366Z,59.30
2023-05-14T01:49:07.658Z,59.29
2023-05-14T01:51:33.898Z,59.63
2023-05-14T01:54:05.128Z,59.56
2023-05-14T01:56:34.170Z,59.08
2023-05-14T01:59:00.770Z,59.54
2023-05-14T02:01:27.068Z,59.48
2023-05-14T02:03:53.614Z,59.08
2023-05-14T02:06:19.952Z,59.40
2023-05-14T02:08:46.199Z,59.36
2023-05-14T02:11:16.756Z,59.20
2023-05-14T02:13:43.189Z,59.30
2023-05-14T02:16:10.743Z,59.11
2023-05-14T02:18:37.419Z,59.38
2023-05-14T02:21:04.790Z,59.44
2023-05-14T02:23:41.010Z,59.34
2023-05-14T02:26:09.600Z,59.06
2023-05-14T02:28:35.954Z,59.05
2023-05-14T02:31:02.248Z,59.23
2023-05-14T02:33:28.674Z,59.34
2023-05-14T02:35:55.141Z,58.98
2023-05-14T02:38:21.840Z,58.99
2023-05-14T02:40:48.082Z,58.87
2023-05-14T02:43:16.502Z,58.81
2023-05-14T02:45:42.792Z,59.10
2023-05-14T02:48:09.121Z,59.14
2023-05-14T02:50:37.292Z,58.75
2023-05-14T02:53:05.532Z,59.04
2023-05-14T02:55:35.758Z,59.06
2023-05-14T02:58:01.987Z,58.91
2023-05-14T03:00:29.933Z,58.97
2023-05-14T03:05:40.941Z,58.73
2023-05-14T03:08:07.178Z,58.89
2023-05-14T03:10:33.431Z,59.10
2023-05-14T03:13:04.638Z,58.85
2023-05-14T03:15:30.844Z,58.78
2023-05-14T03:17:57.138Z,59.04
2023-05-14T03:20:23.614Z,58.80
2023-05-14T03:22:49.967Z,58.88
2023-05-14T03:25:16.318Z,58.67
2023-05-14T03:27:42.545Z,58.82
2023-05-14T03:30:08.820Z,58.68
2023-05-14T03:32:35.177Z,58.87
2023-05-14T03:35:02.394Z,58.54
2023-05-14T03:37:30.751Z,58.82
2023-05-14T03:39:57.448Z,58.63
2023-05-14T03:42:23.696Z,58.75
2023-05-14T03:44:51.114Z,58.50
2023-05-14T03:47:17.373Z,58.38
2023-05-14T03:49:43.651Z,58.81
2023-05-14T03:52:10.104Z,58.43
2023-05-14T03:54:36.545Z,58.78
2023-05-14T03:57:02.780Z,58.67
2023-05-14T03:59:33.819Z,58.22
2023-05-14T04:02:00.035Z,58.49
2023-05-14T04:04:29.582Z,58.80
2023-05-14T04:06:55.937Z,58.36
2023-05-14T04:09:22.197Z,58.21
2023-05-14T04:11:48.428Z,58.28
2023-05-14T04:14:16.875Z,58.45
2023-05-14T04:16:44.578Z,58.34
2023-05-14T04:19:11.049Z,58.51
2023-05-14T04:21:37.387Z,58.28
2023-05-14T04:24:03.639Z,58.56
2023-05-14T04:26:30.462Z,58.48
2023-05-14T04:28:56.667Z,58.16
2023-05-14T04:31:26.485Z,57.98
2023-05-14T04:33:52.758Z,58.53
2023-05-14T04:36:19.054Z,58.28
2023-05-14T04:38:45.327Z,58.21
2023-05-14T04:41:11.929Z,58.34
2023-05-14T04:43:40.547Z,58.51
2023-05-14T04:46:07.302Z,58.42
2023-05-14T04:48:33.559Z,58.59
2023-05-14T04:51:06.830Z,58.46
2023-05-14T04:53:33.453Z,58.15
2023-05-14T04:55:59.745Z,58.21
2023-05-14T04:58:25.971Z,58.41
2023-05-14T05:00:52.254Z,58.50
2023-05-14T05:03:18.629Z,58.11
2023-05-14T05:05:44.946Z,58.16
2023-05-14T05:08:11.158Z,58.63
2023-05-14T05:10:37.435Z,58.16
2023-05-14T05:13:03.699Z,58.23
2023-05-14T05:15:29.918Z,58.50
2023-05-14T05:17:56.663Z,58.55
2023-05-14T05:20:23.099Z,58.23
2023-05-14T05:22:54.126Z,58.37
2023-05-14T05:25:20.341Z,58.40
2023-05-14T05:27:46.666Z,58.58
2023-05-14T05:30:13.783Z,58.36
2023-05-14T05:32:40.641Z,58.48
2023-05-14T05:35:08.087Z,58.27
2023-05-14T05:37:34.338Z,60.54
2023-05-14T05:40:00.598Z,59.13
2023-05-14T05:42:26.913Z,59.41
2023-05-14T05:44:53.141Z,59.54
2023-05-14T05:47:20.073Z,59.29
2023-05-14T05:49:47.639Z,59.63
2023-05-14T05:52:14.237Z,59.62
2023-05-14T05:54:44.919Z,59.68
2023-05-14T05:57:13.727Z,59.87
2023-05-14T05:59:39.993Z,59.91
2023-05-14T06:02:06.252Z,59.84
2023-05-14T06:04:32.531Z,59.69
2023-05-14T06:06:58.768Z,59.90
2023-05-14T06:09:26.760Z,60.19
2023-05-14T06:11:53.250Z,59.92
2023-05-14T06:14:19.520Z,60.09
2023-05-14T06:16:46.111Z,60.12
2023-05-14T06:19:16.041Z,60.32
2023-05-14T06:21:46.882Z,59.96
2023-05-14T06:24:16.658Z,60.23
2023-05-14T06:26:42.934Z,60.28
2023-05-14T06:29:09.195Z,60.36
2023-05-14T06:31:35.594Z,60.69
2023-05-14T06:34:01.979Z,60.61
2023-05-14T06:36:28.190Z,60.97
2023-05-14T06:38:54.466Z,60.79
2023-05-14T06:41:23.063Z,60.52
2023-05-14T06:43:49.475Z,60.60
2023-05-14T06:46:15.712Z,60.65
2023-05-14T06:48:42.008Z,60.72
2023-05-14T06:51:09.792Z,60.53
2023-05-14T06:53:36.043Z,60.13
2023-05-14T06:56:02.315Z,59.82
2023-05-14T06:58:29.802Z,59.87
2023-05-14T07:00:56.037Z,59.53
2023-05-14T07:03:22.300Z,59.65
2023-05-14T07:05:48.523Z,59.61
2023-05-14T07:08:14.732Z,59.51
2023-05-14T07:10:43.313Z,59.20
2023-05-14T07:13:12.351Z,58.64
2023-05-14T07:15:38.597Z,58.70
2023-05-14T07:18:04.849Z,58.66
2023-05-14T07:20:31.145Z,58.82
2023-05-14T07:22:57.398Z,58.69
2023-05-14T07:25:23.635Z,58.65
2023-05-14T07:27:49.864Z,58.81
2023-05-14T07:30:16.159Z,58.61
2023-05-14T07:32:42.906Z,58.75
2023-05-14T07:35:12.385Z,58.82
2023-05-14T07:37:38.613Z,58.88
2023-05-14T07:40:04.833Z,58.74
2023-05-14T07:42:36.396Z,58.92
2023-05-14T07:45:04.287Z,58.70
2023-05-14T07:47:30.765Z,58.50
2023-05-14T07:49:57.914Z,58.63
2023-05-14T07:52:24.153Z,58.89
2023-05-14T07:54:50.767Z,58.94
2023-05-14T07:57:17.110Z,58.72
2023-05-14T07:59:43.411Z,58.49
2023-05-14T08:02:09.717Z,58.74
2023-05-14T08:04:38.132Z,58.96
2023-05-14T08:07:05.119Z,58.50
2023-05-14T08:09:31.323Z,58.62
2023-05-14T08:11:58.127Z,58.38
2023-05-14T08:14:24.317Z,58.58
2023-05-14T08:16:50.612Z,58.34
2023-05-14T08:19:17.775Z,58.56
2023-05-14T08:21:44.086Z,58.45
2023-05-14T08:24:10.302Z,58.52
2023-05-14T08:26:36.562Z,58.33
2023-05-14T08:29:05.419Z,58.50
2023-05-14T08:31:31.957Z,58.68
2023-05-14T08:33:58.253Z,58.18
2023-05-14T08:36:24.470Z,58.67
2023-05-14T08:38:50.698Z,58.24
2023-05-14T08:41:16.942Z,58.42
2023-05-14T08:43:45.392Z,58.50
2023-05-14T08:46:11.649Z,58.58
2023-05-14T08:48:40.299Z,58.47
2023-05-14T08:51:06.565Z,58.43
2023-05-14T08:53:32.837Z,58.38
2023-05-14T08:56:00.037Z,58.30
2023-05-14T08:58:27.886Z,58.41
2023-05-14T09:00:54.111Z,58.59
2023-05-14T09:03:24.541Z,58.31
2023-05-14T09:05:50.850Z,58.39
2023-05-14T09:08:18.086Z,58.48
2023-05-14T09:10:47.990Z,58.61
2023-05-14T09:13:14.198Z,58.28
2023-05-14T09:15:40.837Z,58.26
2023-05-14T09:18:07.191Z,58.30
2023-05-14T09:20:34.203Z,58.31
2023-05-14T09:23:00.455Z,58.17
2023-05-14T09:25:26.880Z,58.44
2023-05-14T09:27:53.068Z,58.49
2023-05-14T09:30:21.000Z,58.28
2023-05-14T09:32:47.584Z,58.58
2023-05-14T09:35:16.338Z,58.13
2023-05-14T09:37:42.591Z,58.48
2023-05-14T09:40:08.802Z,58.27
2023-05-14T09:42:36.993Z,58.06
2023-05-14T09:45:04.324Z,57.89
2023-05-14T09:47:30.605Z,57.68
2023-05-14T09:49:56.868Z,57.57
2023-05-14T09:52:25.324Z,57.39
2023-05-14T09:54:52.173Z,57.15
2023-05-14T09:57:18.399Z,56.96
2023-05-14T09:59:44.611Z,56.81
2023-05-14T10:02:11.625Z,56.58
2023-05-14T10:04:38.013Z,56.71
2023-05-14T10:07:04.553Z,56.63
2023-05-14T10:09:30.792Z,56.56
2023-05-14T10:11:57.070Z,56.49
2023-05-14T10:14:23.334Z,56.25
2023-05-14T10:16:49.601Z,56.46
2023-05-14T10:19:15.903Z,56.01
2023-05-14T10:21:42.148Z,56.03
2023-05-14T10:24:08.391Z,55.64
2023-05-14T10:26:34.641Z,55.82
2023-05-14T10:29:00.841Z,55.88
2023-05-14T10:31:27.144Z,55.86
2023-05-14T10:33:53.475Z,55.45
2023-05-14T10:36:19.762Z,55.87
2023-05-14T10:38:45.957Z,55.87
2023-05-14T10:41:12.192Z,56.08
2023-05-14T10:43:38.455Z,55.81
2023-05-14T10:46:08.043Z,56.13
2023-05-14T10:48:34.283Z,56.42
2023-05-14T10:51:00.513Z,55.42
2023-05-14T10:53:28.338Z,55.79
2023-05-14T10:55:54.557Z,55.50
2023-05-14T10:58:21.549Z,55.41
2023-05-14T11:00:47.800Z,55.40
2023-05-14T11:03:14.060Z,56.02
2023-05-14T11:05:40.283Z,55.24
2023-05-14T11:08:06.515Z,55.07
2023-05-14T11:10:33.780Z,55.65
2023-05-14T11:13:02.424Z,55.27
2023-05-14T11:15:28.629Z,55.62
2023-05-14T11:17:54.891Z,55.85
2023-05-14T11:20:21.118Z,55.08
2023-05-14T11:22:50.971Z,55.30
2023-05-14T11:25:17.309Z,55.22
2023-05-14T11:27:44.616Z,55.77
2023-05-14T11:30:10.889Z,55.64
2023-05-14T11:32:42.092Z,55.19
2023-05-14T11:35:08.324Z,55.48
2023-05-14T11:37:34.598Z,55.68
2023-05-14T11:40:00.846Z,55.55
2023-05-14T11:42:27.093Z,55.65
2023-05-14T11:44:53.375Z,55.60
2023-05-14T11:47:19.597Z,56.03
2023-05-14T11:49:45.866Z,56.02
2023-05-14T11:52:12.139Z,55.79
2023-05-14T11:54:38.395Z,56.27
2023-05-14T11:57:04.605Z,55.82
2023-05-14T11:59:30.827Z,56.05
2023-05-14T12:01:58.237Z,56.01
2023-05-14T12:04:24.496Z,56.25
2023-05-14T12:06:50.723Z,56.27
2023-05-14T12:09:21.071Z,56.00
2023-05-14T12:11:47.306Z,56.02
2023-05-14T12:14:15.279Z,56.05
2023-05-14T12:16:41.646Z,55.93
2023-05-14T12:19:12.470Z,56.08
2023-05-14T12:21:38.730Z,56.27
2023-05-14T12:24:05.656Z,55.94
2023-05-14T12:26:31.935Z,56.26
2023-05-14T12:28:59.647Z,56.28
2023-05-14T12:31:26.272Z,55.99
2023-05-14T12:33:52.489Z,56.18
2023-05-14T12:36:21.906Z,56.12
2023-05-14T12:38:48.736Z,56.09
2023-05-14T12:41:15.463Z,56.11
2023-05-14T12:43:43.254Z,56.32
2023-05-14T12:46:09.486Z,56.25
2023-05-14T12:48:35.766Z,55.94
2023-05-14T12:51:02.963Z,56.08
2023-05-14T12:53:29.198Z,56.30
2023-05-14T12:55:55.442Z,56.16
2023-05-14T12:58:21.690Z,56.20
2023-05-14T13:00:48.044Z,56.25
2023-05-14T13:03:14.339Z,56.18
2023-05-14T13:05:40.609Z,55.95
2023-05-14T13:08:08.222Z,56.30
2023-05-14T13:10:34.441Z,56.13
2023-05-14T13:13:00.701Z,56.04
2023-05-14T13:15:26.994Z,56.30
2023-05-14T13:17:53.235Z,56.23
2023-05-14T13:20:19.485Z,56.29
2023-05-14T13:22:48.354Z,56.16
2023-05-14T13:25:14.615Z,55.85
2023-05-14T13:27:40.868Z,56.19
2023-05-14T13:30:07.072Z,56.13
2023-05-14T13:32:33.368Z,56.07
2023-05-14T13:34:59.655Z,55.93
2023-05-14T13:37:25.905Z,56.03
2023-05-14T13:39:52.130Z,56.23
2023-05-14T13:42:18.359Z,55.87
2023-05-14T13:44:45.901Z,56.04
2023-05-14T13:47:12.124Z,56.03
2023-05-14T13:49:38.390Z,56.00
2023-05-14T13:52:05.960Z,55.88
2023-05-14T13:54:32.165Z,56.14
2023-05-14T13:56:58.401Z,55.97
2023-05-14T13:59:24.727Z,56.01
2023-05-14T14:01:51.017Z,56.23
2023-05-14T14:04:17.267Z,55.84
2023-05-14T14:06:44.150Z,55.82
2023-05-14T14:09:10.402Z,55.82
2023-05-14T14:11:36.671Z,55.86
2023-05-14T14:14:02.899Z,55.82
2023-05-14T14:16:29.147Z,56.04
2023-05-14T14:18:58.586Z,55.30
2023-05-14T14:21:24.997Z,55.22
2023-05-14T14:23:53.594Z,55.10
2023-05-14T14:26:23.255Z,55.37
2023-05-14T14:28:49.483Z,55.30
2023-05-14T14:31:16.697Z,55.22
2023-05-14T14:33:44.693Z,54.96
2023-05-14T14:36:10.927Z,54.86
2023-05-14T14:38:37.150Z,54.93
2023-05-14T14:41:04.047Z,55.02
2023-05-14T14:43:33.018Z,55.14
2023-05-14T14:45:59.247Z,54.87
2023-05-14T14:48:27.876Z,54.90
2023-05-14T14:50:57.834Z,55.07
2023-05-14T14:53:28.824Z,55.15
2023-05-14T14:55:55.134Z,54.95
2023-05-14T14:58:21.401Z,55.39
2023-05-14T15:00:47.750Z,55.00
2023-05-14T15:03:15.442Z,55.25
2023-05-14T15:05:46.813Z,55.30
2023-05-14T15:08:13.011Z,55.44
2023-05-14T15:10:39.283Z,55.45
2023-05-14T15:13:05.493Z,55.47
2023-05-14T15:15:31.719Z,55.33
2023-05-14T15:17:58.011Z,55.26
2023-05-14T15:20:24.278Z,55.31
2023-05-14T15:22:50.518Z,55.33
2023-05-14T15:25:17.015Z,55.30
2023-05-14T15:27:43.738Z,55.67
2023-05-14T15:30:10.002Z,55.36
2023-05-14T15:32:36.320Z,55.50
2023-05-14T15:35:04.068Z,55.43
2023-05-14T15:37:31.619Z,55.75
2023-05-14T15:39:58.220Z,55.52
2023-05-14T15:42:24.470Z,55.94
2023-05-14T15:44:50.699Z,55.94
2023-05-14T15:47:17.001Z,55.85
2023-05-14T15:49:43.232Z,55.95
2023-05-14T15:52:09.455Z,55.92
2023-05-14T15:54:35.672Z,55.79
2023-05-14T15:57:04.536Z,55.81
2023-05-14T15:59:33.061Z,56.08
2023-05-14T16:01:59.339Z,56.16
2023-05-14T16:04:26.303Z,55.92
2023-05-14T16:06:52.606Z,55.85
2023-05-14T16:09:19.020Z,56.02
2023-05-14T16:11:45.231Z,56.26
2023-05-14T16:14:12.778Z,56.14
2023-05-14T16:16:39.345Z,55.83
2023-05-14T16:19:05.773Z,56.36
2023-05-14T16:21:34.169Z,56.26
2023-05-14T16:24:00.365Z,56.45
2023-05-14T16:26:26.626Z,56.32
2023-05-14T16:28:53.039Z,56.41
2023-05-14T16:31:19.282Z,56.32
2023-05-14T16:33:45.507Z,56.60
2023-05-14T16:36:11.753Z,56.12
2023-05-14T16:38:52.396Z,56.49
2023-05-14T16:41:26.944Z,56.54
2023-05-14T16:43:53.230Z,56.36
2023-05-14T16:46:19.476Z,56.17
2023-05-14T16:48:48.409Z,56.56
2023-05-14T16:51:15.267Z,56.13
2023-05-14T16:53:41.657Z,56.26
2023-05-14T16:56:08.911Z,56.08
2023-05-14T16:58:38.880Z,56.32
2023-05-14T17:01:10.768Z,56.36
2023-05-14T17:03:37.963Z,56.44
2023-05-14T17:06:04.210Z,56.31
2023-05-14T17:08:30.473Z,56.26
2023-05-14T17:10:58.455Z,56.32
2023-05-14T17:13:24.661Z,56.31
2023-05-14T17:15:50.929Z,56.13
2023-05-14T17:18:17.847Z,56.21
2023-05-14T17:20:44.131Z,56.22
2023-05-14T17:23:12.049Z,56.31
2023-05-14T17:25:38.374Z,56.07
2023-05-14T17:28:04.606Z,56.02
2023-05-14T17:30:30.794Z,56.18
2023-05-14T17:32:57.291Z,56.21
2023-05-14T17:35:23.805Z,56.15
2023-05-14T17:37:52.317Z,56.11
2023-05-14T17:40:18.552Z,56.32
2023-05-14T17:42:44.808Z,56.19
2023-05-14T17:45:11.016Z,55.94
2023-05-14T17:47:37.322Z,55.97
2023-05-14T17:50:04.543Z,56.43
2023-05-14T17:52:32.700Z,56.01
2023-05-14T17:55:00.194Z,56.26
2023-05-14T17:57:26.522Z,55.98
2023-05-14T17:59:52.825Z,56.29
2023-05-14T18:02:21.150Z,56.08
2023-05-14T18:04:47.544Z,56.25
2023-05-14T18:07:13.778Z,55.88
2023-05-14T18:09:40.033Z,56.26
2023-05-14T18:12:06.247Z,55.95
2023-05-14T18:14:32.526Z,56.18
2023-05-14T18:17:02.285Z,56.19
2023-05-14T18:19:28.535Z,56.09
2023-05-14T18:21:54.747Z,56.17
2023-05-14T18:24:21.077Z,55.97
2023-05-14T18:26:47.312Z,55.93
2023-05-14T18:29:14.868Z,55.98
2023-05-14T18:31:43.313Z,55.98
2023-05-14T18:34:09.644Z,55.97
2023-05-14T18:36:35.906Z,56.02
2023-05-14T18:39:02.127Z,55.89
2023-05-14T18:41:28.330Z,56.07
2023-05-14T18:43:54.553Z,56.02
2023-05-14T18:46:20.917Z,56.31
2023-05-14T18:48:47.198Z,56.09
2023-05-14T18:51:13.615Z,56.23
2023-05-14T18:53:43.325Z,56.03
2023-05-14T18:56:10.737Z,56.19
2023-05-14T18:58:38.668Z,56.27
2023-05-14T19:01:04.963Z,56.03
2023-05-14T19:03:33.744Z,56.16
2023-05-14T19:06:03.419Z,56.27
2023-05-14T19:08:32.713Z,56.28
2023-05-14T19:10:58.945Z,56.45
2023-05-14T19:13:25.464Z,56.19
2023-05-14T19:15:51.703Z,56.15
2023-05-14T19:18:20.557Z,56.13
2023-05-14T19:20:46.855Z,56.14
2023-05-14T19:23:15.248Z,56.18
2023-05-14T19:25:41.503Z,56.13
2023-05-14T19:28:08.551Z,56.40
2023-05-14T19:30:34.790Z,56.18
2023-05-14T19:33:01.541Z,56.32
2023-05-14T19:35:27.861Z,56.47
2023-05-14T19:37:54.196Z,56.62
2023-05-14T19:40:23.078Z,56.46
2023-05-14T19:42:49.374Z,56.10
2023-05-14T19:45:15.591Z,56.40
2023-05-14T19:47:41.872Z,56.53
2023-05-14T19:50:08.080Z,56.44
2023-05-14T19:52:34.324Z,56.19
2023-05-14T19:55:00.552Z,56.25
2023-05-14T19:57:27.855Z,56.38
2023-05-14T19:59:54.077Z,56.39
2023-05-14T20:02:20.325Z,56.28
2023-05-14T20:04:46.654Z,56.29
2023-05-14T20:07:12.881Z,56.56
2023-05-14T20:09:39.368Z,56.59
2023-05-14T20:12:05.612Z,56.31
2023-05-14T20:14:31.958Z,56.46
2023-05-14T20:16:58.228Z,56.30
2023-05-14T20:19:24.533Z,56.35
2023-05-14T20:21:50.900Z,56.36
2023-05-14T20:24:17.309Z,56.43
2023-05-14T20:26:43.630Z,56.34
2023-05-14T20:29:11.535Z,56.63
2023-05-14T20:31:37.752Z,56.41
2023-05-14T20:34:03.993Z,56.73
2023-05-14T20:36:30.267Z,56.69
2023-05-14T20:39:00.919Z,56.75
2023-05-14T20:41:27.356Z,56.84
2023-05-14T20:43:53.573Z,56.56
2023-05-14T20:46:21.905Z,56.80
2023-05-14T20:48:48.220Z,56.62
2023-05-14T20:51:14.744Z,56.81
2023-05-14T20:53:43.839Z,56.84
2023-05-14T20:56:10.093Z,56.56
2023-05-14T20:58:36.290Z,56.57
2023-05-14T21:01:02.754Z,56.47
2023-05-14T21:03:29.116Z,56.71
2023-05-14T21:06:00.293Z,56.93
2023-05-14T21:08:27.771Z,56.90
2023-05-14T21:10:53.993Z,56.57
2023-05-14T21:13:20.236Z,56.58
2023-05-14T21:15:46.459Z,56.66
2023-05-14T21:18:14.107Z,56.49
2023-05-14T21:20:40.403Z,56.71
2023-05-14T21:23:06.861Z,56.96
2023-05-14T21:25:34.202Z,56.81
2023-05-14T21:28:00.494Z,56.59
2023-05-14T21:30:26.772Z,56.92
2023-05-14T21:32:53.117Z,56.97
2023-05-14T21:35:22.895Z,56.52
2023-05-14T21:37:50.750Z,56.86
2023-05-14T21:40:16.979Z,56.73
2023-05-14T21:42:43.194Z,56.86
2023-05-14T21:45:12.076Z,56.83
2023-05-14T21:47:38.497Z,56.77
2023-05-14T21:50:08.368Z,56.62
2023-05-14T21:52:34.654Z,56.88
2023-05-14T21:55:00.854Z,56.69
2023-05-14T21:57:28.371Z,56.74
2023-05-14T21:59:56.019Z,56.67
2023-05-14T22:02:22.432Z,56.64
2023-05-14T22:04:48.700Z,56.63
2023-05-14T22:07:14.984Z,56.94
2023-05-14T22:09:41.353Z,57.09
2023-05-14T22:12:07.626Z,56.78
2023-05-14T22:14:35.567Z,56.87
2023-05-14T22:17:01.839Z,56.89
2023-05-14T22:19:30.224Z,56.83
2023-05-14T22:21:56.447Z,56.74
2023-05-14T22:24:25.690Z,56.74
2023-05-14T22:26:51.940Z,56.71
2023-05-14T22:29:18.186Z,56.83
2023-05-14T22:31:45.849Z,56.87
2023-05-14T22:34:12.154Z,56.66
2023-05-14T22:36:38.544Z,56.73
2023-05-14T22:39:04.871Z,56.71
2023-05-14T22:41:31.839Z,56.94
2023-05-14T22:43:58.153Z,56.63
2023-05-14T22:46:26.857Z,56.94
2023-05-14T22:48:53.406Z,56.86
2023-05-14T22:51:19.602Z,56.78
2023-05-14T22:53:45.804Z,56.60
2023-05-14T22:56:12.002Z,56.60
2023-05-14T22:58:38.252Z,56.60
2023-05-14T23:01:07.479Z,56.64
2023-05-14T23:03:33.719Z,56.95
2023-05-14T23:06:01.609Z,56.80
2023-05-14T23:08:30.855Z,56.62
2023-05-14T23:10:57.068Z,56.65
2023-05-14T23:13:23.281Z,56.72
2023-05-14T23:15:49.656Z,56.97
2023-05-14T23:18:16.040Z,56.87
2023-05-14T23:20:42.355Z,56.67
2023-05-14T23:23:14.663Z,56.65
2023-05-14T23:25:40.893Z,56.61
2023-05-14T23:28:07.779Z,56.82
2023-05-14T23:30:34.083Z,56.91
2023-05-14T23:33:05.324Z,56.71
2023-05-14T23:35:31.603Z,57.00
2023-05-14T23:37:59.171Z,56.90
2023-05-14T23:40:25.974Z,56.53
2023-05-14T23:42:54.172Z,56.79
2023-05-14T23:45:25.166Z,56.77
2023-05-14T23:47:51.741Z,56.72
2023-05-14T23:50:18.143Z,56.93
2023-05-14T23:52:45.502Z,56.73
2023-05-14T23:55:11.774Z,56.72
2023-05-14T23:57:38.001Z,56.64
